createdAt,value
2019-03-06T00:00:20.546Z,1005.45
2019-03-06T00:01:20.423Z,1005.42
2019-03-06T00:02:20.376Z,1005.41
2019-03-06T00:03:20.334Z,1005.39
2019-03-06T00:04:20.291Z,1005.38
2019-03-06T00:05:20.229Z,1005.38
2019-03-06T00:06:20.183Z,1005.30
2019-03-06T00:07:20.138Z,1005.29
2019-03-06T00:08:20.087Z,1005.29
2019-03-06T00:09:20.042Z,1005.29
2019-03-06T00:10:19.986Z,1005.26
2019-03-06T00:11:19.948Z,1005.27
2019-03-06T00:12:19.894Z,1005.28
2019-03-06T00:13:19.889Z,1005.21
2019-03-06T00:14:20.049Z,1005.20
2019-03-06T00:15:19.791Z,1005.17
2019-03-06T00:16:19.698Z,1005.22
2019-03-06T00:17:19.660Z,1005.16
2019-03-06T00:18:19.603Z,1005.15
2019-03-06T00:19:19.562Z,1005.10
2019-03-06T00:20:19.504Z,1005.07
2019-03-06T00:21:19.456Z,1005.04
2019-03-06T00:22:19.409Z,1005.08
2019-03-06T00:23:19.409Z,1005.07
2019-03-06T00:24:19.352Z,1005.08
2019-03-06T00:25:19.269Z,1005.10
2019-03-06T00:26:19.223Z,1005.04
2019-03-06T00:27:19.178Z,1005.08
2019-03-06T00:28:19.356Z,1005.05
2019-03-06T00:29:19.252Z,1005.01
2019-03-06T00:30:19.051Z,1005.05
2019-03-06T00:31:18.975Z,1005.09
2019-03-06T00:32:18.938Z,1005.06
2019-03-06T00:33:18.875Z,1005.03
2019-03-06T00:34:18.843Z,1005.03
2019-03-06T00:35:18.780Z,1005.01
2019-03-06T00:36:19.589Z,1004.99
2019-03-06T00:37:18.685Z,1005.00
2019-03-06T00:38:18.633Z,1005.04
2019-03-06T00:39:18.587Z,1005.02
2019-03-06T00:40:18.545Z,1005.00
2019-03-06T00:41:18.594Z,1004.96
2019-03-06T00:42:18.441Z,1004.96
2019-03-06T00:43:18.393Z,1004.99
2019-03-06T00:44:18.348Z,1004.94
2019-03-06T00:45:18.296Z,1004.99
2019-03-06T00:46:18.253Z,1005.04
2019-03-06T00:47:18.199Z,1005.00
2019-03-06T00:48:18.236Z,1004.99
2019-03-06T00:49:18.110Z,1005.04
2019-03-06T00:50:18.162Z,1005.01
2019-03-06T00:51:18.012Z,1004.97
2019-03-06T00:52:17.959Z,1004.99
2019-03-06T00:53:17.912Z,1005.01
2019-03-06T00:54:17.933Z,1004.99
2019-03-06T00:55:17.814Z,1004.90
2019-03-06T00:56:17.765Z,1004.96
2019-03-06T00:57:17.720Z,1004.92
2019-03-06T00:58:17.676Z,1004.93
2019-03-06T00:59:17.620Z,1004.94
2019-03-06T01:00:17.583Z,1004.90
2019-03-06T01:01:17.536Z,1004.94
2019-03-06T01:02:17.476Z,1004.93
2019-03-06T01:03:17.431Z,1004.89
2019-03-06T01:04:17.381Z,1004.87
2019-03-06T01:05:17.334Z,1004.86
2019-03-06T01:06:17.289Z,1004.89
2019-03-06T01:07:17.243Z,1004.86
2019-03-06T01:08:17.187Z,1004.83
2019-03-06T01:09:17.140Z,1004.86
2019-03-06T01:10:17.090Z,1004.88
2019-03-06T01:11:17.043Z,1004.87
2019-03-06T01:12:16.995Z,1004.85
2019-03-06T01:13:16.947Z,1004.81
2019-03-06T01:14:16.897Z,1004.83
2019-03-06T01:15:16.855Z,1004.84
2019-03-06T01:16:16.805Z,1004.84
2019-03-06T01:17:16.753Z,1004.87
2019-03-06T01:18:16.704Z,1004.80
2019-03-06T01:19:16.658Z,1004.84
2019-03-06T01:20:16.608Z,1004.81
2019-03-06T01:21:16.560Z,1004.79
2019-03-06T01:22:16.512Z,1004.75
2019-03-06T01:23:16.467Z,1004.78
2019-03-06T01:24:16.417Z,1004.75
2019-03-06T01:25:16.368Z,1004.78
2019-03-06T01:26:16.318Z,1004.79
2019-03-06T01:27:16.267Z,1004.70
2019-03-06T01:28:16.222Z,1004.65
2019-03-06T01:29:16.177Z,1004.67
2019-03-06T01:30:16.123Z,1004.63
2019-03-06T01:31:16.077Z,1004.58
2019-03-06T01:32:16.035Z,1004.57
2019-03-06T01:33:15.981Z,1004.51
2019-03-06T01:34:15.933Z,1004.48
2019-03-06T01:35:15.886Z,1004.47
2019-03-06T01:36:15.835Z,1004.45
2019-03-06T01:37:15.788Z,1004.40
2019-03-06T01:38:15.740Z,1004.44
2019-03-06T01:39:15.689Z,1004.43
2019-03-06T01:40:15.646Z,1004.40
2019-03-06T01:41:15.596Z,1004.39
2019-03-06T01:42:15.547Z,1004.40
2019-03-06T01:43:15.498Z,1004.35
2019-03-06T01:44:15.450Z,1004.37
2019-03-06T01:45:15.407Z,1004.33
2019-03-06T01:46:15.352Z,1004.30
2019-03-06T01:47:15.305Z,1004.30
2019-03-06T01:48:15.255Z,1004.29
2019-03-06T01:49:15.211Z,1004.22
2019-03-06T01:50:15.160Z,1004.25
2019-03-06T01:51:15.113Z,1004.28
2019-03-06T01:52:15.063Z,1004.20
2019-03-06T01:53:15.014Z,1004.20
2019-03-06T01:54:14.966Z,1004.16
2019-03-06T01:55:14.922Z,1004.15
2019-03-06T01:56:14.869Z,1004.11
2019-03-06T01:57:14.821Z,1004.11
2019-03-06T01:58:14.771Z,1004.09
2019-03-06T01:59:14.729Z,1004.07
2019-03-06T02:00:14.676Z,1004.06
2019-03-06T02:01:14.626Z,1004.03
2019-03-06T02:02:14.577Z,1004.02
2019-03-06T02:03:14.531Z,1004.03
2019-03-06T02:04:14.485Z,1004.01
2019-03-06T02:05:14.438Z,1004.05
2019-03-06T02:06:14.388Z,1003.96
2019-03-06T02:07:14.343Z,1003.97
2019-03-06T02:08:14.291Z,1003.94
2019-03-06T02:09:14.242Z,1003.91
2019-03-06T02:10:14.195Z,1003.89
2019-03-06T02:11:14.158Z,1003.95
2019-03-06T02:12:14.107Z,1003.87
2019-03-06T02:13:14.047Z,1003.89
2019-03-06T02:14:13.999Z,1003.87
2019-03-06T02:15:13.954Z,1003.89
2019-03-06T02:16:13.905Z,1003.90
2019-03-06T02:17:13.852Z,1003.84
2019-03-06T02:18:13.812Z,1003.86
2019-03-06T02:19:13.758Z,1003.84
2019-03-06T02:20:13.712Z,1003.83
2019-03-06T02:21:13.660Z,1003.84
2019-03-06T02:22:13.613Z,1003.84
2019-03-06T02:23:13.564Z,1003.87
2019-03-06T02:24:13.515Z,1003.88
2019-03-06T02:25:13.468Z,1003.88
2019-03-06T02:26:13.417Z,1003.83
2019-03-06T02:27:13.369Z,1003.82
2019-03-06T02:28:13.320Z,1003.78
2019-03-06T02:29:13.276Z,1003.78
2019-03-06T02:30:13.227Z,1003.77
2019-03-06T02:31:13.175Z,1003.79
2019-03-06T02:32:13.126Z,1003.69
2019-03-06T02:33:13.079Z,1003.66
2019-03-06T02:34:13.030Z,1003.64
2019-03-06T02:35:12.987Z,1003.59
2019-03-06T02:36:12.938Z,1003.57
2019-03-06T02:37:12.889Z,1003.51
2019-03-06T02:38:12.838Z,1003.52
2019-03-06T02:39:12.791Z,1003.50
2019-03-06T02:40:12.748Z,1003.47
2019-03-06T02:41:12.693Z,1003.45
2019-03-06T02:42:12.647Z,1003.40
2019-03-06T02:43:12.600Z,1003.38
2019-03-06T02:44:12.550Z,1003.31
2019-03-06T02:45:12.500Z,1003.33
2019-03-06T02:46:12.452Z,1003.29
2019-03-06T02:47:12.406Z,1003.29
2019-03-06T02:48:12.355Z,1003.22
2019-03-06T02:49:12.309Z,1003.24
2019-03-06T02:50:12.257Z,1003.21
2019-03-06T02:51:12.244Z,1003.24
2019-03-06T02:52:12.166Z,1003.09
2019-03-06T02:53:12.127Z,1003.15
2019-03-06T02:54:12.066Z,1003.15
2019-03-06T02:55:12.017Z,1003.17
2019-03-06T02:56:11.968Z,1003.17
2019-03-06T02:57:11.937Z,1003.18
2019-03-06T02:58:11.873Z,1003.23
2019-03-06T02:59:11.829Z,1003.21
2019-03-06T03:00:11.784Z,1003.17
2019-03-06T03:01:11.728Z,1003.16
2019-03-06T03:02:11.680Z,1003.18
2019-03-06T03:03:11.636Z,1003.26
2019-03-06T03:04:11.583Z,1003.21
2019-03-06T03:05:11.538Z,1003.14
2019-03-06T03:06:11.485Z,1003.18
2019-03-06T03:07:11.440Z,1003.16
2019-03-06T03:08:11.393Z,1003.16
2019-03-06T03:09:11.341Z,1003.14
2019-03-06T03:10:11.292Z,1003.11
2019-03-06T03:11:11.258Z,1003.06
2019-03-06T03:12:11.196Z,1003.02
2019-03-06T03:13:11.156Z,1003.01
2019-03-06T03:14:11.099Z,1002.93
2019-03-06T03:15:11.051Z,1002.89
2019-03-06T03:16:11.034Z,1002.86
2019-03-06T03:17:10.959Z,1002.87
2019-03-06T03:18:10.909Z,1002.86
2019-03-06T03:19:10.861Z,1002.86
2019-03-06T03:20:10.810Z,1002.85
2019-03-06T03:21:10.765Z,1002.80
2019-03-06T03:22:10.718Z,1002.84
2019-03-06T03:23:10.718Z,1002.82
2019-03-06T03:24:10.709Z,1002.81
2019-03-06T03:25:10.664Z,1002.77
2019-03-06T03:26:10.518Z,1002.81
2019-03-06T03:27:10.479Z,1002.80
2019-03-06T03:28:10.425Z,1002.78
2019-03-06T03:29:10.379Z,1002.79
2019-03-06T03:30:10.341Z,1002.84
2019-03-06T03:31:10.281Z,1002.81
2019-03-06T03:32:10.231Z,1002.80
2019-03-06T03:33:10.188Z,1002.81
2019-03-06T03:34:10.532Z,1002.83
2019-03-06T03:35:10.170Z,1002.76
2019-03-06T03:36:10.040Z,1002.81
2019-03-06T03:37:09.995Z,1002.80
2019-03-06T03:38:09.945Z,1002.75
2019-03-06T03:39:09.894Z,1002.71
2019-03-06T03:40:09.847Z,1002.70
2019-03-06T03:41:09.799Z,1002.76
2019-03-06T03:42:09.753Z,1002.78
2019-03-06T03:43:09.701Z,1002.76
2019-03-06T03:44:09.672Z,1002.78
2019-03-06T03:45:09.605Z,1002.77
2019-03-06T03:46:09.562Z,1002.76
2019-03-06T03:47:09.507Z,1002.61
2019-03-06T03:48:09.685Z,1002.66
2019-03-06T03:49:09.415Z,1002.75
2019-03-06T03:50:09.369Z,1002.71
2019-03-06T03:51:09.317Z,1002.63
2019-03-06T03:52:09.267Z,1002.66
2019-03-06T03:53:09.246Z,1002.71
2019-03-06T03:54:09.171Z,1002.69
2019-03-06T03:55:09.122Z,1002.63
2019-03-06T03:56:09.074Z,1002.70
2019-03-06T03:57:09.030Z,1002.66
2019-03-06T03:58:08.985Z,1002.61
2019-03-06T03:59:08.942Z,1002.65
2019-03-06T04:00:08.887Z,1002.59
2019-03-06T04:01:08.836Z,1002.63
2019-03-06T04:02:08.803Z,1002.58
2019-03-06T04:03:08.740Z,1002.62
2019-03-06T04:04:08.714Z,1002.62
2019-03-06T04:05:08.641Z,1002.60
2019-03-06T04:06:08.592Z,1002.61
2019-03-06T04:07:08.543Z,1002.55
2019-03-06T04:08:08.498Z,1002.51
2019-03-06T04:09:08.457Z,1002.58
2019-03-06T04:10:08.404Z,1002.46
2019-03-06T04:11:08.353Z,1002.56
2019-03-06T04:12:08.306Z,1002.46
2019-03-06T04:13:08.258Z,1002.48
2019-03-06T04:14:08.215Z,1002.49
2019-03-06T04:15:08.166Z,1002.46
2019-03-06T04:16:08.110Z,1002.40
2019-03-06T04:17:08.077Z,1002.45
2019-03-06T04:18:08.015Z,1002.42
2019-03-06T04:19:07.971Z,1002.45
2019-03-06T04:20:07.919Z,1002.45
2019-03-06T04:21:07.870Z,1002.45
2019-03-06T04:22:07.820Z,1002.48
2019-03-06T04:23:07.775Z,1002.49
2019-03-06T04:24:07.730Z,1002.44
2019-03-06T04:25:07.677Z,1002.47
2019-03-06T04:26:07.627Z,1002.50
2019-03-06T04:27:07.581Z,1002.52
2019-03-06T04:28:07.537Z,1002.52
2019-03-06T04:29:07.492Z,1002.55
2019-03-06T04:30:07.442Z,1002.51
2019-03-06T04:31:07.394Z,1002.49
2019-03-06T04:32:07.341Z,1002.46
2019-03-06T04:33:07.292Z,1002.46
2019-03-06T04:34:07.252Z,1002.44
2019-03-06T04:35:07.200Z,1002.41
2019-03-06T04:36:07.149Z,1002.36
2019-03-06T04:37:07.103Z,1002.40
2019-03-06T04:38:07.057Z,1002.41
2019-03-06T04:39:07.004Z,1002.33
2019-03-06T04:40:06.958Z,1002.33
2019-03-06T04:41:06.917Z,1002.26
2019-03-06T04:42:06.863Z,1002.32
2019-03-06T04:43:06.812Z,1002.23
2019-03-06T04:44:06.769Z,1002.18
2019-03-06T04:45:06.716Z,1002.16
2019-03-06T04:46:06.670Z,1002.13
2019-03-06T04:47:06.628Z,1002.09
2019-03-06T04:48:06.591Z,1002.07
2019-03-06T04:49:06.525Z,1002.05
2019-03-06T04:50:06.479Z,1002.03
2019-03-06T04:51:06.429Z,1002.06
2019-03-06T04:52:06.387Z,1002.11
2019-03-06T04:53:06.334Z,1002.03
2019-03-06T04:54:06.287Z,1002.07
2019-03-06T04:55:06.238Z,1002.01
2019-03-06T04:56:06.189Z,1002.03
2019-03-06T04:57:06.142Z,1002.04
2019-03-06T04:58:06.098Z,1002.01
2019-03-06T04:59:06.049Z,1002.02
2019-03-06T05:00:06.001Z,1001.99
2019-03-06T05:01:05.951Z,1001.99
2019-03-06T05:02:05.909Z,1001.94
2019-03-06T05:03:05.856Z,1001.85
2019-03-06T05:04:05.812Z,1001.81
2019-03-06T05:05:05.761Z,1001.79
2019-03-06T05:06:05.717Z,1001.80
2019-03-06T05:07:05.663Z,1001.76
2019-03-06T05:08:05.817Z,1001.73
2019-03-06T05:09:05.568Z,1001.77
2019-03-06T05:10:05.519Z,1001.79
2019-03-06T05:11:05.476Z,1001.82
2019-03-06T05:12:05.438Z,1001.84
2019-03-06T05:13:05.380Z,1001.80
2019-03-06T05:14:05.335Z,1001.80
2019-03-06T05:15:05.299Z,1001.78
2019-03-06T05:16:05.238Z,1001.77
2019-03-06T05:17:05.186Z,1001.82
2019-03-06T05:18:05.136Z,1001.83
2019-03-06T05:19:05.092Z,1001.79
2019-03-06T05:20:05.041Z,1001.75
2019-03-06T05:21:04.994Z,1001.73
2019-03-06T05:22:04.947Z,1001.69
2019-03-06T05:23:04.895Z,1001.66
2019-03-06T05:24:04.850Z,1001.66
2019-03-06T05:25:04.806Z,1001.67
2019-03-06T05:26:04.753Z,1001.64
2019-03-06T05:27:04.707Z,1001.67
2019-03-06T05:28:04.660Z,1001.62
2019-03-06T05:29:04.613Z,1001.59
2019-03-06T05:30:04.561Z,1001.60
2019-03-06T05:31:04.516Z,1001.54
2019-03-06T05:32:04.485Z,1001.60
2019-03-06T05:33:04.422Z,1001.48
2019-03-06T05:34:04.371Z,1001.50
2019-03-06T05:35:04.325Z,1001.42
2019-03-06T05:36:04.277Z,1001.36
2019-03-06T05:37:04.226Z,1001.33
2019-03-06T05:38:04.182Z,1001.27
2019-03-06T05:39:04.130Z,1001.21
2019-03-06T05:40:04.085Z,1001.25
2019-03-06T05:41:04.038Z,1001.24
2019-03-06T05:42:03.988Z,1001.30
2019-03-06T05:43:03.937Z,1001.27
2019-03-06T05:44:03.892Z,1001.26
2019-03-06T05:45:03.846Z,1001.26
2019-03-06T05:46:03.799Z,1001.21
2019-03-06T05:47:03.746Z,1001.20
2019-03-06T05:48:03.708Z,1001.20
2019-03-06T05:49:03.658Z,1001.23
2019-03-06T05:50:03.603Z,1001.20
2019-03-06T05:51:03.575Z,1001.12
2019-03-06T05:52:03.515Z,1001.13
2019-03-06T05:53:03.465Z,1001.14
2019-03-06T05:54:03.414Z,1001.14
2019-03-06T05:55:03.363Z,1001.11
2019-03-06T05:56:03.323Z,1001.10
2019-03-06T05:57:03.271Z,1001.05
2019-03-06T05:58:03.227Z,1000.94
2019-03-06T05:59:03.175Z,1000.95
2019-03-06T06:00:03.130Z,1001.04
2019-03-06T06:01:03.080Z,1000.97
2019-03-06T06:02:03.033Z,1000.88
2019-03-06T06:03:02.982Z,1000.87
2019-03-06T06:04:02.936Z,1000.87
2019-03-06T06:05:02.887Z,1000.89
2019-03-06T06:06:02.838Z,1000.88
2019-03-06T06:07:02.790Z,1000.85
2019-03-06T06:08:02.760Z,1000.75
2019-03-06T06:09:02.697Z,1000.77
2019-03-06T06:10:02.651Z,1000.77
2019-03-06T06:11:02.604Z,1000.75
2019-03-06T06:12:02.551Z,1000.72
2019-03-06T06:13:02.506Z,1000.69
2019-03-06T06:14:02.455Z,1000.70
2019-03-06T06:15:02.410Z,1000.67
2019-03-06T06:16:02.359Z,1000.67
2019-03-06T06:17:02.313Z,1000.59
2019-03-06T06:18:02.270Z,1000.59
2019-03-06T06:19:02.219Z,1000.50
2019-03-06T06:20:02.170Z,1000.51
2019-03-06T06:21:02.125Z,1000.54
2019-03-06T06:22:02.071Z,1000.60
2019-03-06T06:23:02.026Z,1000.55
2019-03-06T06:24:01.978Z,1000.54
2019-03-06T06:25:01.931Z,1000.50
2019-03-06T06:26:01.901Z,1000.53
2019-03-06T06:27:01.840Z,1000.52
2019-03-06T06:28:01.788Z,1000.54
2019-03-06T06:29:01.740Z,1000.50
2019-03-06T06:30:01.691Z,1000.54
2019-03-06T06:31:01.645Z,1000.57
2019-03-06T06:32:01.597Z,1000.48
2019-03-06T06:33:01.548Z,1000.50
2019-03-06T06:34:01.503Z,1000.40
2019-03-06T06:35:01.453Z,1000.41
2019-03-06T06:36:01.408Z,1000.43
2019-03-06T06:37:01.354Z,1000.41
2019-03-06T06:38:01.307Z,1000.43
2019-03-06T06:39:01.263Z,1000.39
2019-03-06T06:40:01.212Z,1000.41
2019-03-06T06:41:01.165Z,1000.43
2019-03-06T06:42:01.114Z,1000.36
2019-03-06T06:43:01.067Z,1000.37
2019-03-06T06:44:01.025Z,1000.37
2019-03-06T06:45:01.024Z,1000.30
2019-03-06T06:46:00.931Z,1000.30
2019-03-06T06:47:00.879Z,1000.36
2019-03-06T06:48:00.833Z,1000.21
2019-03-06T06:49:00.785Z,1000.27
2019-03-06T06:50:00.741Z,1000.25
2019-03-06T06:51:02.263Z,1000.24
2019-03-06T06:52:00.637Z,1000.21
2019-03-06T06:53:00.594Z,1000.20
2019-03-06T06:54:00.546Z,1000.17
2019-03-06T06:55:00.499Z,1000.22
2019-03-06T06:56:00.451Z,1000.14
2019-03-06T06:57:00.400Z,1000.13
2019-03-06T06:58:00.354Z,1000.06
2019-03-06T06:59:00.310Z,1000.09
2019-03-06T07:00:00.371Z,1000.04
2019-03-06T07:01:00.211Z,1000.02
2019-03-06T07:02:00.160Z,999.99
2019-03-06T07:03:00.115Z,999.93
2019-03-06T07:04:00.067Z,999.99
2019-03-06T07:05:00.019Z,999.94
2019-03-06T07:05:59.978Z,999.94
2019-03-06T07:06:59.940Z,999.90
2019-03-06T07:07:59.877Z,999.90
2019-03-06T07:08:59.828Z,999.85
2019-03-06T07:09:59.778Z,999.92
2019-03-06T07:10:59.743Z,999.85
2019-03-06T07:11:59.686Z,999.82
2019-03-06T07:12:59.639Z,999.78
2019-03-06T07:13:59.593Z,999.73
2019-03-06T07:14:59.547Z,999.77
2019-03-06T07:15:59.497Z,999.70
2019-03-06T07:16:59.454Z,999.71
2019-03-06T07:17:59.400Z,999.68
2019-03-06T07:18:59.350Z,999.60
2019-03-06T07:19:59.302Z,999.65
2019-03-06T07:20:59.258Z,999.61
2019-03-06T07:21:59.208Z,999.51
2019-03-06T07:22:59.160Z,999.59
2019-03-06T07:23:59.115Z,999.54
2019-03-06T07:24:59.064Z,999.52
2019-03-06T07:25:59.025Z,999.55
2019-03-06T07:26:58.973Z,999.41
2019-03-06T07:27:58.929Z,999.51
2019-03-06T07:28:58.877Z,999.50
2019-03-06T07:29:58.831Z,999.49
2019-03-06T07:30:58.780Z,999.54
2019-03-06T07:31:58.730Z,999.48
2019-03-06T07:32:58.684Z,999.45
2019-03-06T07:33:58.642Z,999.51
2019-03-06T07:34:58.597Z,999.48
2019-03-06T07:35:58.543Z,999.53
2019-03-06T07:36:58.499Z,999.56
2019-03-06T07:37:58.449Z,999.46
2019-03-06T07:38:58.399Z,999.51
2019-03-06T07:39:58.354Z,999.51
2019-03-06T07:40:58.303Z,999.58
2019-03-06T07:41:58.260Z,999.56
2019-03-06T07:42:58.208Z,999.58
2019-03-06T07:43:58.161Z,999.54
2019-03-06T07:44:58.112Z,999.61
2019-03-06T07:45:58.064Z,999.59
2019-03-06T07:46:58.020Z,999.67
2019-03-06T07:47:57.971Z,999.61
2019-03-06T07:48:58.158Z,999.56
2019-03-06T07:49:57.873Z,999.63
2019-03-06T07:50:57.826Z,999.52
2019-03-06T07:51:57.786Z,999.58
2019-03-06T07:52:57.736Z,999.53
2019-03-06T07:53:57.686Z,999.52
2019-03-06T07:54:57.634Z,999.49
2019-03-06T07:55:57.593Z,999.55
2019-03-06T07:56:59.266Z,999.53
2019-03-06T07:57:57.493Z,999.56
2019-03-06T07:58:57.446Z,999.54
2019-03-06T07:59:57.411Z,999.54
2019-03-06T08:00:57.364Z,999.54
2019-03-06T08:01:57.303Z,999.50
2019-03-06T08:02:57.267Z,999.46
2019-03-06T08:03:57.226Z,999.47
2019-03-06T08:04:57.162Z,999.43
2019-03-06T08:05:57.114Z,999.53
2019-03-06T08:06:57.068Z,999.47
2019-03-06T08:07:57.025Z,999.38
2019-03-06T08:08:56.975Z,999.39
2019-03-06T08:09:56.924Z,999.41
2019-03-06T08:10:56.884Z,999.31
2019-03-06T08:11:56.833Z,999.32
2019-03-06T08:12:56.796Z,999.20
2019-03-06T08:13:56.739Z,999.25
2019-03-06T08:14:56.701Z,999.20
2019-03-06T08:15:56.643Z,999.19
2019-03-06T08:16:56.993Z,999.18
2019-03-06T08:17:56.550Z,999.18
2019-03-06T08:18:56.503Z,999.14
2019-03-06T08:19:56.451Z,999.19
2019-03-06T08:20:56.403Z,999.08
2019-03-06T08:21:56.360Z,999.08
2019-03-06T08:22:56.315Z,998.99
2019-03-06T08:23:56.270Z,998.98
2019-03-06T08:24:56.214Z,999.12
2019-03-06T08:25:56.169Z,998.97
2019-03-06T08:26:56.135Z,999.00
2019-03-06T08:27:56.073Z,998.94
2019-03-06T08:28:56.026Z,999.00
2019-03-06T08:29:55.982Z,998.93
2019-03-06T08:30:55.934Z,999.04
2019-03-06T08:31:55.893Z,998.98
2019-03-06T08:32:55.840Z,999.03
2019-03-06T08:33:55.792Z,998.94
2019-03-06T08:34:55.747Z,998.91
2019-03-06T08:35:55.706Z,998.91
2019-03-06T08:36:55.655Z,999.00
2019-03-06T08:37:55.605Z,998.96
2019-03-06T08:38:55.562Z,999.04
2019-03-06T08:39:55.511Z,998.97
2019-03-06T08:41:03.947Z,998.90
2019-03-06T08:41:55.433Z,998.88
2019-03-06T08:42:55.373Z,998.82
2019-03-06T08:43:55.324Z,998.84
2019-03-06T08:44:55.275Z,998.89
2019-03-06T08:45:55.229Z,998.89
2019-03-06T08:46:55.182Z,998.88
2019-03-06T08:47:55.143Z,998.84
2019-03-06T08:48:55.089Z,998.88
2019-03-06T08:49:55.283Z,998.90
2019-03-06T08:50:54.995Z,998.85
2019-03-06T08:51:54.948Z,998.71
2019-03-06T08:52:54.902Z,998.74
2019-03-06T08:53:54.853Z,998.89
2019-03-06T08:54:54.807Z,998.88
2019-03-06T08:55:54.762Z,998.86
2019-03-06T08:56:54.714Z,998.79
2019-03-06T08:57:54.681Z,998.77
2019-03-06T08:58:54.627Z,998.85
2019-03-06T08:59:54.577Z,998.80
2019-03-06T09:00:54.530Z,998.76
2019-03-06T09:02:00.445Z,998.76
2019-03-06T09:02:54.433Z,998.71
2019-03-06T09:03:54.390Z,998.73
2019-03-06T09:04:54.340Z,998.65
2019-03-06T09:05:54.293Z,998.55
2019-03-06T09:06:54.250Z,998.71
2019-03-06T09:07:54.203Z,998.63
2019-03-06T09:08:54.153Z,998.58
2019-03-06T09:09:54.108Z,998.66
2019-03-06T09:11:02.461Z,998.60
2019-03-06T09:11:54.015Z,998.55
2019-03-06T09:12:53.971Z,998.63
2019-03-06T09:13:53.921Z,998.57
2019-03-06T09:14:53.873Z,998.61
2019-03-06T09:15:53.847Z,998.52
2019-03-06T09:16:53.791Z,998.43
2019-03-06T09:17:57.138Z,998.43
2019-03-06T09:18:53.689Z,998.38
2019-03-06T09:19:53.645Z,998.40
2019-03-06T09:20:53.599Z,998.20
2019-03-06T09:21:53.551Z,998.42
2019-03-06T09:22:53.514Z,998.26
2019-03-06T09:23:53.462Z,998.23
2019-03-06T09:24:53.418Z,998.19
2019-03-06T09:25:53.364Z,998.20
2019-03-06T09:26:53.317Z,998.20
2019-03-06T09:27:53.277Z,998.23
2019-03-06T09:29:00.731Z,998.13
2019-03-06T09:29:53.181Z,998.11
2019-03-06T09:30:53.150Z,998.11
2019-03-06T09:31:53.093Z,997.95
2019-03-06T09:32:53.039Z,998.13
2019-03-06T09:33:53.001Z,998.03
2019-03-06T09:34:52.949Z,998.09
2019-03-06T09:35:52.906Z,998.02
2019-03-06T09:36:52.863Z,997.95
2019-03-06T09:37:52.814Z,997.89
2019-03-06T09:38:52.767Z,997.85
2019-03-06T09:39:52.714Z,997.93
2019-03-06T09:40:52.667Z,997.90
2019-03-06T09:41:52.633Z,997.87
2019-03-06T09:42:52.577Z,997.86
2019-03-06T09:43:52.529Z,997.81
2019-03-06T09:44:52.488Z,997.78
2019-03-06T09:45:52.438Z,997.78
2019-03-06T09:46:52.391Z,997.67
2019-03-06T09:47:52.345Z,997.61
2019-03-06T09:48:52.301Z,997.67
2019-03-06T09:49:52.254Z,997.62
2019-03-06T09:50:52.221Z,997.62
2019-03-06T09:51:52.162Z,997.52
2019-03-06T09:52:52.113Z,997.51
2019-03-06T09:53:52.070Z,997.52
2019-03-06T09:54:52.022Z,997.45
2019-03-06T09:55:51.975Z,997.55
2019-03-06T09:56:51.929Z,997.52
2019-03-06T09:57:51.884Z,997.47
2019-03-06T09:58:51.837Z,997.62
2019-03-06T09:59:51.793Z,997.50
2019-03-06T10:00:51.750Z,997.49
2019-03-06T10:01:51.701Z,997.61
2019-03-06T10:02:51.653Z,997.59
2019-03-06T10:03:51.609Z,997.54
2019-03-06T10:04:51.561Z,997.53
2019-03-06T10:05:51.513Z,997.59
2019-03-06T10:06:51.470Z,997.37
2019-03-06T10:07:51.427Z,997.44
2019-03-06T10:08:51.378Z,997.40
2019-03-06T10:09:58.918Z,997.40
2019-03-06T10:10:57.477Z,997.40
2019-03-06T10:11:51.238Z,997.40
2019-03-06T10:12:51.193Z,997.37
2019-03-06T10:13:52.157Z,997.41
2019-03-06T10:14:51.101Z,997.38
2019-03-06T10:15:51.057Z,997.46
2019-03-06T10:16:51.013Z,997.39
2019-03-06T10:17:50.967Z,997.35
2019-03-06T10:18:50.920Z,997.39
2019-03-06T10:19:50.883Z,997.37
2019-03-06T10:20:50.829Z,997.34
2019-03-06T10:21:50.789Z,997.33
2019-03-06T10:22:50.738Z,997.41
2019-03-06T10:23:50.695Z,997.40
2019-03-06T10:24:50.677Z,997.40
2019-03-06T10:25:50.654Z,997.34
2019-03-06T10:26:50.632Z,997.33
2019-03-06T10:27:50.606Z,997.34
2019-03-06T10:28:50.531Z,997.26
2019-03-06T10:29:50.415Z,997.30
2019-03-06T10:30:50.379Z,997.31
2019-03-06T10:31:50.332Z,997.37
2019-03-06T10:32:50.285Z,997.39
2019-03-06T10:33:50.233Z,997.39
2019-03-06T10:34:50.191Z,997.45
2019-03-06T10:35:50.148Z,997.53
2019-03-06T10:36:50.096Z,997.44
2019-03-06T10:37:50.053Z,997.42
2019-03-06T10:38:50.006Z,997.41
2019-03-06T10:39:49.959Z,997.39
2019-03-06T10:40:49.917Z,997.43
2019-03-06T10:41:49.870Z,997.46
2019-03-06T10:42:49.830Z,997.42
2019-03-06T10:43:49.993Z,997.33
2019-03-06T10:44:49.736Z,997.44
2019-03-06T10:45:49.688Z,997.39
2019-03-06T10:46:49.658Z,997.44
2019-03-06T10:47:49.599Z,997.47
2019-03-06T10:48:49.553Z,997.29
2019-03-06T10:49:49.507Z,997.38
2019-03-06T10:50:49.462Z,997.46
2019-03-06T10:51:49.416Z,997.45
2019-03-06T10:52:49.379Z,997.48
2019-03-06T10:53:49.325Z,997.47
2019-03-06T10:54:49.282Z,997.41
2019-03-06T10:55:49.235Z,997.41
2019-03-06T10:56:49.190Z,997.43
2019-03-06T10:57:49.154Z,997.41
2019-03-06T10:58:49.104Z,997.35
2019-03-06T10:59:49.053Z,997.29
2019-03-06T11:00:49.030Z,997.28
2019-03-06T11:01:48.962Z,997.27
2019-03-06T11:02:48.915Z,997.32
2019-03-06T11:03:48.870Z,997.33
2019-03-06T11:04:48.825Z,997.30
2019-03-06T11:05:48.788Z,997.37
2019-03-06T11:06:48.737Z,997.37
2019-03-06T11:07:48.697Z,997.28
2019-03-06T11:08:48.648Z,997.25
2019-03-06T11:09:48.603Z,997.25
2019-03-06T11:10:48.557Z,997.33
2019-03-06T11:11:48.510Z,997.10
2019-03-06T11:12:48.466Z,997.06
2019-03-06T11:13:48.419Z,997.09
2019-03-06T11:14:48.380Z,997.04
2019-03-06T11:15:55.352Z,997.08
2019-03-06T11:16:48.285Z,997.07
2019-03-06T11:17:48.243Z,996.95
2019-03-06T11:18:48.201Z,997.08
2019-03-06T11:19:48.155Z,997.00
2019-03-06T11:20:48.107Z,996.90
2019-03-06T11:21:48.060Z,996.90
2019-03-06T11:22:48.017Z,996.95
2019-03-06T11:23:47.973Z,996.89
2019-03-06T11:24:47.931Z,996.99
2019-03-06T11:25:47.889Z,996.99
2019-03-06T11:26:47.839Z,996.91
2019-03-06T11:27:47.796Z,996.92
2019-03-06T11:28:47.753Z,996.86
2019-03-06T11:29:47.710Z,996.83
2019-03-06T11:30:47.661Z,996.72
2019-03-06T11:31:47.631Z,996.72
2019-03-06T11:32:54.277Z,996.70
2019-03-06T11:33:47.537Z,996.59
2019-03-06T11:34:47.484Z,996.58
2019-03-06T11:35:47.442Z,996.68
2019-03-06T11:36:47.394Z,996.69
2019-03-06T11:37:47.348Z,996.55
2019-03-06T11:38:47.309Z,996.58
2019-03-06T11:39:47.264Z,996.57
2019-03-06T11:40:47.218Z,996.55
2019-03-06T11:41:47.176Z,996.46
2019-03-06T11:42:47.130Z,996.44
2019-03-06T11:43:47.084Z,996.42
2019-03-06T11:44:47.041Z,996.34
2019-03-06T11:45:46.992Z,996.28
2019-03-06T11:46:46.954Z,996.27
2019-03-06T11:47:46.904Z,996.28
2019-03-06T11:48:46.863Z,996.22
2019-03-06T11:49:46.823Z,996.28
2019-03-06T11:50:46.775Z,996.21
2019-03-06T11:51:46.735Z,996.18
2019-03-06T11:52:46.690Z,996.21
2019-03-06T11:53:46.641Z,996.18
2019-03-06T11:54:48.102Z,996.10
2019-03-06T11:55:46.556Z,996.12
2019-03-06T11:56:46.512Z,996.07
2019-03-06T11:57:46.467Z,996.07
2019-03-06T11:58:46.425Z,996.04
2019-03-06T11:59:46.376Z,996.10
2019-03-06T12:00:46.333Z,995.97
2019-03-06T12:01:48.215Z,996.01
2019-03-06T12:02:46.244Z,996.06
2019-03-06T12:03:46.198Z,996.05
2019-03-06T12:04:46.157Z,996.01
2019-03-06T12:05:46.114Z,996.03
2019-03-06T12:06:46.070Z,996.04
2019-03-06T12:07:46.023Z,995.93
2019-03-06T12:08:46.186Z,995.92
2019-03-06T12:09:45.936Z,995.95
2019-03-06T12:10:45.896Z,995.94
2019-03-06T12:11:45.846Z,995.84
2019-03-06T12:12:45.801Z,995.92
2019-03-06T12:13:45.770Z,995.85
2019-03-06T12:14:45.721Z,995.88